D/T METAR WX W/SPE G/SPE TEMP DEWP FEEL
24/05/22 23:50 EGWU 242250Z AUTO 25006KT 9999 NCD 11/07 Q1011 6.9mph 11°C 7°C 11.0°C
24/05/22 22:50 EGWU 242150Z 25007KT 9999 FEW045 12/07 Q1011 NOSIG RMK BLU BLU 8.1mph 12°C 7°C 12.0°C
24/05/22 22:20 EGWU 242120Z 26006KT 9999 FEW040 SCT070 13/06 Q1011 NOSIG RMK BLU BLU 6.9mph 13°C 6°C 12.6°C
24/05/22 21:50 EGWU 242050Z 27007KT 9999 FEW040 SCT080 13/06 Q1010 NOSIG RMK BLU BLU 8.1mph 13°C 6°C 12.6°C
24/05/22 21:20 EGWU 242020Z 27006KT 9999 FEW040 SCT080 14/07 Q1010 NOSIG RMK BLU BLU 6.9mph 14°C 7°C 14.0°C
24/05/22 20:50 EGWU 241950Z 28007KT 9999 FEW040 14/07 Q1010 NOSIG RMK BLU BLU 8.1mph 14°C 7°C 14.0°C
24/05/22 20:20 EGWU 241920Z 29006KT 9999 FEW040 15/06 Q1009 NOSIG RMK BLU BLU 6.9mph 15°C 6°C 14.6°C
24/05/22 19:50 EGWU 241850Z 28009KT 9999 FEW040 15/06 Q1009 NOSIG RMK BLU BLU 10.4mph 15°C 6°C 14.6°C
24/05/22 19:20 EGWU 241820Z 28005KT 9999 FEW040 17/07 Q1008 NOSIG RMK BLU BLU 5.8mph 17°C 7°C 17.0°C
24/05/22 18:50 EGWU 241750Z 33005KT 9999 FEW040 SCT100 16/07 Q1008 NOSIG RMK BLU BLU 5.8mph 16°C 7°C 16.0°C
24/05/22 18:20 EGWU 241720Z 34006KT 9999 FEW035TCU SCT040 16/07 Q1008 NOSIG RMK BLU BLU 6.9mph 16°C 7°C 16.0°C
24/05/22 17:50 EGWU 241650Z 26008KT 9999 VCSH SCT030CB 17/06 Q1008 TEMPO 7000 -SHRA VCSH 9.2mph 17°C 6°C 16.6°C
24/05/22 17:20 EGWU 241620Z 33008KT 9999 VCSH FEW030CB 16/08 Q1008 TEMPO 7000 -SHRA SCT030CB RMK BLU TEMPO WHT VCSH 9.2mph 16°C 8°C 16.4°C
24/05/22 16:50 EGWU 241550Z 32007KT 9999 VCSH SCT030CB 16/08 Q1007 TEMPO 7000 -SHRA VCSH 8.1mph 16°C 8°C 16.4°C
24/05/22 16:20 EGWU 241520Z 29009KT 9999 6000NE VCSH SCT030CB 16/07 Q1007 TEMPO 9999 NSW RMK WHT TEMPO BLU VCSH 10.4mph 16°C 7°C 16.0°C
24/05/22 15:50 EGWU 241450Z 28008KT 9999 VCSH FEW030CB 17/08 Q1007 TEMPO 6000 SHRA BKN030CB VCSH 9.2mph 17°C 8°C 17.4°C
24/05/22 15:20 EGWU 241420Z 33010KT 9999 VCSH FEW030CB 16/08 Q1007 TEMPO 6000 SHRA BKN030CB RMK BLU TEMPO WHT VCSH 11.5mph 16°C 8°C 16.4°C
24/05/22 14:50 EGWU 241350Z 33007KT 9999 VCSH FEW015 FEW030CB SCT045 13/10 Q1007 RESHRA TEMPO 7000 -SHRA SCT015 BKN030CB VCSH 8.1mph 13°C 10°C 14.3°C
24/05/22 14:32 EGWU 241332Z 32013G23KT 9999 7000N -SHRA FEW030CB SCT040TCU 15/07 Q1007 TEMPO 9999 NSW RMK WHT TEMPO BLU -SHRA 15.0mph 26.5mph 15°C 7°C 15.0°C
24/05/22 13:50 EGWU 241250Z 30010KT 9999 VCSH FEW015CB FEW035TCU 17/07 Q1006 TEMPO 7000 SHRA SCT015CB VCSH 11.5mph 17°C 7°C 17.0°C
24/05/22 13:21 EGWU 241221Z 23004KT 9999 VCSH FEW015CB SCT035 15/10 Q1006 RESHRA RESHGS TEMPO 7000 SHRA SCT014CB RMK BLU TEMPO GRN VCSH SHGS 4.6mph 15°C 10°C 16.3°C
24/05/22 12:50 EGWU 241150Z 26004KT 9999 -SHRA VCSH FEW015CB SCT035 15/09 Q1006 RETS TEMPO SCT014CB RMK BLU TEMPO GRN -SHRA VCSH 4.6mph 15°C 9°C 15.8°C
24/05/22 12:36 EGWU 241136Z 26002KT 9999 TS FEW015CB SCT035 13/10 Q1006 TEMPO 5000 TSRA BKN014 RMK BLU TEMPO GRN TS 2.3mph 13°C 10°C 14.3°C
24/05/22 11:50 EGWU 241050Z 27009KT 9999 VCSH FEW012CB FEW040TCU 16/08 Q1005 TEMPO 5000 TSRA BKN012CB VCSH 10.4mph 16°C 8°C 16.4°C
24/05/22 11:20 EGWU 241020Z 28011KT 9999 VCSH FEW024 SCT030TCU 15/08 Q1005 TEMPO 5000 SHRA SCT020 RMK BLU TEMPO WHT VCSH 12.7mph 15°C 8°C 15.4°C
24/05/22 10:50 EGWU 240950Z 26007KT 9999 FEW020 SCT024 15/09 Q1005 TEMPO 7000 -SHRA RMK WHT TEMPO WHT 8.1mph 15°C 9°C 15.8°C
24/05/22 10:20 EGWU 240920Z 30007KT 9999 FEW015 13/09 Q1005 TEMPO 7000 -SHRA SCT018 RMK BLU TEMPO WHT 8.1mph 13°C 9°C 13.8°C
24/05/22 09:50 EGWU 240850Z 28009KT 9999 FEW015 SCT020 BKN080 12/09 Q1005 TEMPO FEW020 10.4mph 12°C 9°C 12.8°C
24/05/22 09:20 EGWU 240820Z 28008KT 9999 FEW010 SCT014 12/09 Q1005 TEMPO FEW015 9.2mph 12°C 9°C 12.8°C
24/05/22 08:50 EGWU 240750Z 29009KT 9999 FEW010 SCT015 12/09 Q1004 TEMPO FEW015 10.4mph 12°C 9°C 12.8°C
24/05/22 08:20 EGWU 240720Z 28010KT 9999 SCT008 SCT018 12/10 Q1004 TEMPO FEW008 11.5mph 12°C 10°C 13.3°C
24/05/22 07:50 EGWU 240650Z 26007KT 9999 BKN007 BKN017 11/10 Q1004 TEMPO FEW007 8.1mph 11°C 10°C 12.3°C
24/05/22 06:50 EGWU 240550Z 27006KT 9999 -SHRA SCT007 SCT012 BKN050 11/10 Q1003 TEMPO FEW007 -SHRA 6.9mph 11°C 10°C 12.3°C
24/05/22 05:50 EGWU 240450Z AUTO 24005KT 5000 BR SCT006/// BKN050/// 10/09 Q1002 RERA BR 5.8mph 10°C 9°C 10.8°C
24/05/22 04:50 EGWU 240350Z AUTO 25008KT 2200 RA FEW024/// BKN037/// 10/09 Q1002 RA 9.2mph 10°C 9°C 10.8°C
24/05/22 03:50 EGWU 240250Z AUTO 25007KT 9999 FEW044/// BKN060/// BKN100/// 10/09 Q1002 8.1mph 10°C 9°C 10.8°C
24/05/22 02:50 EGWU 240150Z AUTO 26006KT 9999 OVC050/// 10/08 Q1001 RERA 6.9mph 10°C 8°C 10.4°C
24/05/22 01:50 EGWU 240050Z AUTO 28007KT 9999 -RA BKN045/// 10/09 Q1001 -RA 8.1mph 10°C 9°C 10.8°C
24/05/22 00:50 EGWU 232350Z AUTO 28008KT 9999 -RA SCT037/// BKN050/// 10/09 Q1001 -RA 9.2mph 10°C 9°C 10.8°C
23/05/22 23:50 EGWU 232250Z AUTO 26009KT 6000 -RA BKN050/// 11/10 Q1001 -RA 10.4mph 11°C 10°C 12.3°C
23/05/22 22:50 EGWU 232150Z AUTO 25006KT 3800 RA FEW030/// BKN034/// 11/10 Q1001 RA 6.9mph 11°C 10°C 12.3°C
23/05/22 21:50 EGWU 232050Z AUTO 29006KT 9999 FEW023/// BKN050/// 12/09 Q1001 6.9mph 12°C 9°C 12.8°C
23/05/22 21:20 EGWU 232020Z 25004KT 9999 FEW024 BKN060 12/10 Q1000 NOSIG RMK BLU BLU 4.6mph 12°C 10°C 13.3°C
23/05/22 20:50 EGWU 231950Z 28004KT 9999 FEW030 BKN060 13/11 Q1000 NOSIG RMK BLU BLU 4.6mph 13°C 11°C 14.8°C
23/05/22 20:20 EGWU 231920Z 27005KT 9999 SCT030 BKN070 13/11 Q1000 NOSIG RMK BLU BLU 5.8mph 13°C 11°C 14.8°C
23/05/22 19:50 EGWU 231850Z 29003KT 9999 SCT033 BKN080 13/11 Q1000 NOSIG RMK BLU BLU 3.5mph 13°C 11°C 14.8°C
23/05/22 19:20 EGWU 231820Z 30008KT 9999 -SHRA FEW020 BKN038 12/10 Q1000 TEMPO 7000 SHRA RMK BLU TEMPO WHT -SHRA 9.2mph 12°C 10°C 13.3°C
23/05/22 18:50 EGWU 231750Z 29012KT 5000 SHRA FEW022 BKN050 14/11 Q1000 BECMG 9999 NSW SHRA 13.8mph 14°C 11°C 15.8°C
23/05/22 18:34 EGWU 231734Z 27015KT 7000 SHRA FEW030 BKN050 15/10 Q1000 BECMG 9999 NSW RMK WHT BECMG BLU SHRA 17.3mph 15°C 10°C 16.3°C
23/05/22 17:50 EGWU 231650Z 27009KT 9999 SCT044 BKN070 18/08 Q0999 TEMPO 7000 SHRA 10.4mph 18°C 8°C 18.4°C
23/05/22 17:20 EGWU 231620Z 26009KT 9999 FEW044 BKN060 18/07 Q0999 TEMPO 7000 SHRA RMK BLU TEMPO WHT 10.4mph 18°C 7°C 18.0°C
23/05/22 16:50 EGWU 231550Z 28009KT 9999 FEW040 SCT070 19/06 Q1000 BLU NOSIG RMK BLU BLU 10.4mph 19°C 6°C 18.6°C
23/05/22 16:20 EGWU 231520Z 28009KT 9999 FEW040 SCT060 BKN150 19/07 Q1000 NOSIG RMK BLU BLU 10.4mph 19°C 7°C 19.0°C
23/05/22 15:50 EGWU 231450Z 28008KT 9999 FEW035 SCT050 BKN150 18/07 Q1000 NOSIG RMK BLU BLU 9.2mph 18°C 7°C 18.0°C
23/05/22 15:20 EGWU 231420Z 32005KT 9999 FEW036 SCT045 BKN070 18/09 Q1000 NOSIG RMK BLU BLU 5.8mph 18°C 9°C 18.8°C
23/05/22 14:50 EGWU 231350Z 28009KT 9999 SCT032 BKN045 17/09 Q1000 NOSIG RMK BLU BLU 10.4mph 17°C 9°C 17.8°C
23/05/22 14:20 EGWU 231320Z 27009KT 9999 FEW029 BKN038 BKN100 16/09 Q1001 NOSIG RMK BLU BLU 10.4mph 16°C 9°C 16.8°C
23/05/22 13:50 EGWU 231250Z 28005KT 9999 SCT037 SCT048 BKN250 16/10 Q1001 NOSIG RMK BLU BLU 5.8mph 16°C 10°C 17.3°C
23/05/22 13:20 EGWU 231220Z 28004KT 9999 BKN035 16/09 Q1001 NOSIG RMK BLU BLU 4.6mph 16°C 9°C 16.8°C
23/05/22 12:50 EGWU 231150Z 30004KT 9999 FEW025 OVC032 16/09 Q1001 NOSIG RMK BLU BLU 4.6mph 16°C 9°C 16.8°C
23/05/22 12:20 EGWU 231120Z 31008KT 9999 FEW024 BKN028 16/09 Q1001 NOSIG RMK BLU BLU 9.2mph 16°C 9°C 16.8°C
23/05/22 11:50 EGWU 231050Z 31010KT 9999 FEW025 BKN030 16/10 Q1001 NOSIG RMK BLU BLU 11.5mph 16°C 10°C 17.3°C
23/05/22 11:19 EGWU 231019Z 32006KT 9999 FEW026 BKN035 BKN087 17/11 Q1001 NOSIG RMK BLU BLU 6.9mph 17°C 11°C 18.8°C
23/05/22 10:50 EGWU 230950Z 35005KT 9999 FEW022 BKN086 17/11 Q1001 TEMPO SCT022 5.8mph 17°C 11°C 18.8°C
23/05/22 10:24 EGWU 230924Z 33006KT 9999 FEW020 BKN080 16/10 Q1002 TEMPO SCT020 RMK BLU TEMPO WHT 6.9mph 16°C 10°C 17.3°C
23/05/22 09:50 EGWU 230850Z 33007KT 9999 FEW020 BKN180 16/11 Q1002 TEMPO SCT020 8.1mph 16°C 11°C 17.8°C
23/05/22 09:20 EGWU 230820Z 32006KT 9999 FEW016 SCT090 BKN220 16/12 Q1002 TEMPO SCT016 RMK BLU TEMPO WHT 6.9mph 16°C 12°C 18.3°C
23/05/22 08:50 EGWU 230750Z 32005KT 9999 FEW016 BKN080 BKN200 15/11 Q1003 TEMPO SCT016 5.8mph 15°C 11°C 16.8°C
23/05/22 08:20 EGWU 230720Z 30003KT 9999 FEW016 BKN200 14/11 Q1003 TEMPO SCT018 RMK BLU TEMPO WHT 3.5mph 14°C 11°C 15.8°C
23/05/22 07:50 EGWU 230650Z 23002KT 9999 FEW016 SCT150 BKN180 13/10 Q1003 TEMPO SCT018 2.3mph 13°C 10°C 14.3°C
23/05/22 06:50 EGWU 230550Z 23002KT 9999 BKN047 BKN090 12/09 Q1004 TEMPO SCT022 2.3mph 12°C 9°C 12.8°C
23/05/22 05:50 EGWU 230450Z AUTO 30001KT 9999 FEW037/// SCT046/// BKN190/// 11/08 Q1004 1.2mph 11°C 8°C 11.4°C
23/05/22 04:50 EGWU 230350Z AUTO 17001KT 9999 FEW080/// OVC190/// 10/08 Q1004 1.2mph 10°C 8°C 10.4°C
23/05/22 03:50 EGWU 230250Z AUTO 22001KT 9999 OVC190/// 10/08 Q1005 1.2mph 10°C 8°C 10.4°C
23/05/22 02:50 EGWU 230150Z AUTO 28001KT 9999 BKN190/// 10/07 Q1005 1.2mph 10°C 7°C 10.0°C
23/05/22 01:50 EGWU 230050Z AUTO 20002KT 9999 OVC200/// 12/08 Q1006 2.3mph 12°C 8°C 12.4°C
23/05/22 00:50 EGWU 222350Z AUTO 23003KT 9999 FEW140/// BKN210/// 13/08 Q1007 3.5mph 13°C 8°C 13.4°C
22/05/22 23:50 EGWU 222250Z AUTO 21005KT 9999 FEW240/// 13/08 Q1007 5.8mph 13°C 8°C 13.4°C
22/05/22 22:50 EGWU 222150Z AUTO 21003KT 9999 BKN230/// 15/07 Q1008 3.5mph 15°C 7°C 15.0°C
22/05/22 21:50 EGWU 222050Z AUTO 23004KT 9999 FEW080/// 16/07 Q1008 4.6mph 16°C 7°C 16.0°C
22/05/22 21:20 EGWU 222020Z 22005KT CAVOK 17/06 Q1008 NOSIG RMK BLU BLU 5.8mph 17°C 6°C 16.6°C
22/05/22 20:50 EGWU 221950Z 21007KT CAVOK 18/06 Q1008 NOSIG RMK BLU BLU 8.1mph 18°C 6°C 17.6°C
22/05/22 20:20 EGWU 221920Z 21007KT CAVOK 19/08 Q1008 NOSIG RMK BLU BLU 8.1mph 19°C 8°C 19.4°C
22/05/22 19:50 EGWU 221850Z 20008KT CAVOK 19/08 Q1008 NOSIG RMK BLU BLU 9.2mph 19°C 8°C 19.4°C
22/05/22 19:20 EGWU 221820Z 20007KT CAVOK 20/07 Q1008 NOSIG RMK BLU BLU 8.1mph 20°C 7°C 20.0°C
22/05/22 18:50 EGWU 221750Z 22010KT CAVOK 20/06 Q1009 NOSIG RMK BLU BLU 11.5mph 20°C 6°C 19.6°C
22/05/22 18:20 EGWU 221720Z 20009KT CAVOK 21/07 Q1009 NOSIG RMK BLU BLU 10.4mph 21°C 7°C 21.0°C
22/05/22 17:50 EGWU 221650Z 24007KT CAVOK 22/09 Q1009 NOSIG RMK BLU BLU 8.1mph 22°C 9°C 22.8°C
22/05/22 17:20 EGWU 221620Z 22006KT CAVOK 22/09 Q1009 NOSIG RMK BLU BLU 6.9mph 22°C 9°C 22.8°C
22/05/22 16:50 EGWU 221550Z 21007KT CAVOK 23/09 Q1010 NOSIG RMK BLU BLU 8.1mph 23°C 9°C 23.8°C
22/05/22 16:22 EGWU 221522Z 22006KT CAVOK 22/09 Q1010 NOSIG RMK BLU BLU 6.9mph 22°C 9°C 22.8°C
22/05/22 15:50 EGWU 221450Z 21007KT CAVOK 22/09 Q1010 NOSIG RMK BLU BLU 8.1mph 22°C 9°C 22.8°C
22/05/22 15:20 EGWU 221420Z 22008KT CAVOK 23/09 Q1011 NOSIG RMK BLU BLU 9.2mph 23°C 9°C 23.8°C
22/05/22 14:50 EGWU 221350Z 23006KT CAVOK 23/09 Q1011 NOSIG RMK BLU BLU 6.9mph 23°C 9°C 23.8°C
22/05/22 14:20 EGWU 221320Z 22008KT CAVOK 23/08 Q1011 NOSIG RMK BLU BLU 9.2mph 23°C 8°C 23.4°C
22/05/22 13:50 EGWU 221250Z 23007KT CAVOK 23/08 Q1012 NOSIG RMK BLU BLU 8.1mph 23°C 8°C 23.4°C